Jarl — SFB6983 — position and weather

sailwx.info

Track history (hours):
 
Tides and Currents Weather Stations Pressure Air Temp Water Temp Dewpoint Dewpoint Depression Visibility Wind Speed Wind Dir Waves Ship Positions

Jarl

Last reported at 2015-Jan-28 08:32 UTC. Time now 2015-Jan-31 07:06 UTC.
Position N 59°19' E 018°02'.

Length 13 m.

Type: Port tender. MMSI: 265671980.

Date/timePositionNaut miles runAvg speedWind from/ knotsBaromVisibWave heightAir tempDewpointWater temp
2015-Jan-28 08:32N 59°19' E 018°02'1 0.7
2015-Jan-28 07:33N 59°20' E 018°04'2 1.6
2015-Jan-28 06:31N 59°18' E 018°05'3 0.1
2015-Jan-26 08:33N 59°21' E 018°07'0 0.0
2015-Jan-26 07:34N 59°21' E 018°07'0 0.2
2015-Jan-26 06:20N 59°21' E 018°07'  
2015-Jan-23 10:28N 59°21' E 018°08'1 1.4
2015-Jan-23 09:31N 59°22' E 018°06'1 0.3
2015-Jan-23 06:32N 59°21' E 018°08'0 0.0
2015-Jan-22 14:09N 59°21' E 018°08'0 0.1
2015-Jan-22 13:26N 59°21' E 018°08'0 0.0
2015-Jan-22 12:32N 59°21' E 018°08'0 0.0
2015-Jan-22 10:31N 59°21' E 018°08'0 0.0
2015-Jan-22 09:31N 59°21' E 018°08'0 0.0
2015-Jan-22 08:22N 59°21' E 018°08'0 0.0
2015-Jan-22 07:22N 59°21' E 018°08'0 0.1
2015-Jan-22 06:26N 59°21' E 018°08'0 0.0
2015-Jan-21 11:33N 59°21' E 018°08'2 1.7
2015-Jan-21 10:33N 59°19' E 018°08'0 0.0
2015-Jan-21 09:24N 59°19' E 018°08'0 0.0
2015-Jan-21 08:29N 59°19' E 018°08'2 1.4
2015-Jan-21 07:24N 59°20' E 018°09'1 0.0
2015-Jan-20 19:16N 59°21' E 018°08'0 0.2
2015-Jan-20 18:30N 59°21' E 018°08'0 0.0
2015-Jan-20 17:30N 59°21' E 018°08'0 0.0
2015-Jan-20 16:30N 59°21' E 018°08'0 0.0
2015-Jan-20 13:27N 59°21' E 018°08'0 0.0
2015-Jan-20 11:18N 59°21' E 018°08'0 0.0
2015-Jan-20 06:18N 59°21' E 018°08'0 0.0
2015-Jan-19 09:15N 59°21' E 018°08'0 0.2
2015-Jan-19 07:31N 59°21' E 018°07'0 0.4
2015-Jan-19 06:21N 59°21' E 018°07'  
Track history (hours):
 
Tides and Currents Weather Stations Pressure Air Temp Water Temp Dewpoint Dewpoint Depression Visibility Wind Speed Wind Dir Waves Ship Positions

Jarl

Last reported at 2015-Jan-28 08:32 UTC. Time now 2015-Jan-31 07:06 UTC.
Position N 59°19' E 018°02'.

Length 13 m.

Type: Port tender. MMSI: 265671980.

Date/timePositionNaut miles runAvg speedWind from/ knotsBaromVisibWave heightAir tempDewpointWater temp
2015-Jan-28 08:32N 59°19' E 018°02'1 0.7
2015-Jan-28 07:33N 59°20' E 018°04'2 1.6
2015-Jan-28 06:31N 59°18' E 018°05'3 0.1
2015-Jan-26 08:33N 59°21' E 018°07'0 0.0
2015-Jan-26 07:34N 59°21' E 018°07'0 0.2
2015-Jan-26 06:20N 59°21' E 018°07'  
2015-Jan-23 10:28N 59°21' E 018°08'1 1.4
2015-Jan-23 09:31N 59°22' E 018°06'1 0.3
2015-Jan-23 06:32N 59°21' E 018°08'0 0.0
2015-Jan-22 14:09N 59°21' E 018°08'0 0.1
2015-Jan-22 13:26N 59°21' E 018°08'0 0.0
2015-Jan-22 12:32N 59°21' E 018°08'0 0.0
2015-Jan-22 10:31N 59°21' E 018°08'0 0.0
2015-Jan-22 09:31N 59°21' E 018°08'0 0.0
2015-Jan-22 08:22N 59°21' E 018°08'0 0.0
2015-Jan-22 07:22N 59°21' E 018°08'0 0.1
2015-Jan-22 06:26N 59°21' E 018°08'0 0.0
2015-Jan-21 11:33N 59°21' E 018°08'2 1.7
2015-Jan-21 10:33N 59°19' E 018°08'0 0.0
2015-Jan-21 09:24N 59°19' E 018°08'0 0.0
2015-Jan-21 08:29N 59°19' E 018°08'2 1.4
2015-Jan-21 07:24N 59°20' E 018°09'1 0.0
2015-Jan-20 19:16N 59°21' E 018°08'0 0.2
2015-Jan-20 18:30N 59°21' E 018°08'0 0.0
2015-Jan-20 17:30N 59°21' E 018°08'0 0.0
2015-Jan-20 16:30N 59°21' E 018°08'0 0.0
2015-Jan-20 13:27N 59°21' E 018°08'0 0.0
2015-Jan-20 11:18N 59°21' E 018°08'0 0.0
2015-Jan-20 06:18N 59°21' E 018°08'0 0.0
2015-Jan-19 09:15N 59°21' E 018°08'0 0.2
2015-Jan-19 07:31N 59°21' E 018°07'0 0.4
2015-Jan-19 06:21N 59°21' E 018°07'  

Dump ship's entire track history